sensor_id;sensor_type;location;lat;lon;timestamp;P1;durP1;ratioP1;P2;durP2;ratioP2
50717;SDS011;60557;51.350;12.410;2023-02-15T00:01:46;59.78;;;32.15;;
50717;SDS011;60557;51.350;12.410;2023-02-15T00:04:15;62.65;;;32.03;;
50717;SDS011;60557;51.350;12.410;2023-02-15T00:06:41;63.72;;;33.13;;
50717;SDS011;60557;51.350;12.410;2023-02-15T00:09:11;75.38;;;36.35;;
50717;SDS011;60557;51.350;12.410;2023-02-15T00:11:37;66.03;;;34.08;;
50717;SDS011;60557;51.350;12.410;2023-02-15T00:16:41;77.15;;;34.67;;
50717;SDS011;60557;51.350;12.410;2023-02-15T00:19:08;57.72;;;31.75;;
50717;SDS011;60557;51.350;12.410;2023-02-15T00:21:35;63.10;;;33.10;;
50717;SDS011;60557;51.350;12.410;2023-02-15T00:24:02;58.80;;;31.20;;
50717;SDS011;60557;51.350;12.410;2023-02-15T00:26:29;58.30;;;30.85;;
50717;SDS011;60557;51.350;12.410;2023-02-15T00:28:57;62.83;;;32.65;;
50717;SDS011;60557;51.350;12.410;2023-02-15T00:31:30;64.60;;;32.22;;
50717;SDS011;60557;51.350;12.410;2023-02-15T00:34:01;64.00;;;32.13;;
50717;SDS011;60557;51.350;12.410;2023-02-15T00:36:27;44.15;;;23.52;;
50717;SDS011;60557;51.350;12.410;2023-02-15T00:38:53;55.78;;;29.73;;
50717;SDS011;60557;51.350;12.410;2023-02-15T00:41:19;67.63;;;31.55;;
50717;SDS011;60557;51.350;12.410;2023-02-15T00:43:47;62.25;;;32.15;;
50717;SDS011;60557;51.350;12.410;2023-02-15T00:46:13;64.22;;;31.70;;
50717;SDS011;60557;51.350;12.410;2023-02-15T00:48:39;74.57;;;34.42;;
50717;SDS011;60557;51.350;12.410;2023-02-15T00:51:05;68.95;;;32.88;;
50717;SDS011;60557;51.350;12.410;2023-02-15T00:53:31;66.97;;;33.78;;
50717;SDS011;60557;51.350;12.410;2023-02-15T00:55:57;65.68;;;33.97;;
50717;SDS011;60557;51.350;12.410;2023-02-15T00:58:26;69.22;;;33.50;;
50717;SDS011;60557;51.350;12.410;2023-02-15T01:00:52;67.80;;;33.40;;
50717;SDS011;60557;51.350;12.410;2023-02-15T01:03:19;73.10;;;34.13;;
50717;SDS011;60557;51.350;12.410;2023-02-15T01:05:46;68.18;;;33.08;;
50717;SDS011;60557;51.350;12.410;2023-02-15T01:08:12;65.70;;;33.00;;
50717;SDS011;60557;51.350;12.410;2023-02-15T01:10:38;64.43;;;33.03;;
50717;SDS011;60557;51.350;12.410;2023-02-15T01:13:05;60.50;;;31.25;;
50717;SDS011;60557;51.350;12.410;2023-02-15T01:15:33;67.82;;;32.22;;
50717;SDS011;60557;51.350;12.410;2023-02-15T01:17:59;67.35;;;31.77;;
50717;SDS011;60557;51.350;12.410;2023-02-15T01:20:28;65.82;;;33.53;;
50717;SDS011;60557;51.350;12.410;2023-02-15T01:22:57;68.10;;;35.22;;
50717;SDS011;60557;51.350;12.410;2023-02-15T01:25:23;60.55;;;31.95;;
50717;SDS011;60557;51.350;12.410;2023-02-15T01:27:50;69.25;;;32.00;;
50717;SDS011;60557;51.350;12.410;2023-02-15T01:30:16;71.82;;;36.20;;
50717;SDS011;60557;51.350;12.410;2023-02-15T01:32:42;66.40;;;30.42;;
50717;SDS011;60557;51.350;12.410;2023-02-15T01:35:11;68.88;;;32.58;;
50717;SDS011;60557;51.350;12.410;2023-02-15T01:37:40;63.15;;;35.33;;
50717;SDS011;60557;51.350;12.410;2023-02-15T01:40:11;65.50;;;33.58;;
50717;SDS011;60557;51.350;12.410;2023-02-15T01:42:38;64.03;;;33.88;;
50717;SDS011;60557;51.350;12.410;2023-02-15T01:45:05;56.03;;;29.67;;
50717;SDS011;60557;51.350;12.410;2023-02-15T01:47:44;64.20;;;32.08;;
50717;SDS011;60557;51.350;12.410;2023-02-15T01:52:49;55.30;;;29.10;;
50717;SDS011;60557;51.350;12.410;2023-02-15T01:55:17;53.53;;;27.30;;
50717;SDS011;60557;51.350;12.410;2023-02-15T01:57:44;55.92;;;27.42;;
50717;SDS011;60557;51.350;12.410;2023-02-15T02:00:13;52.67;;;28.10;;
50717;SDS011;60557;51.350;12.410;2023-02-15T02:02:41;43.42;;;26.17;;
50717;SDS011;60557;51.350;12.410;2023-02-15T02:05:11;50.47;;;26.92;;
50717;SDS011;60557;51.350;12.410;2023-02-15T02:07:39;55.05;;;26.27;;
50717;SDS011;60557;51.350;12.410;2023-02-15T02:10:12;53.60;;;25.50;;
50717;SDS011;60557;51.350;12.410;2023-02-15T02:12:39;52.30;;;27.43;;
50717;SDS011;60557;51.350;12.410;2023-02-15T02:15:06;55.50;;;26.98;;
50717;SDS011;60557;51.350;12.410;2023-02-15T02:17:45;46.45;;;25.95;;
50717;SDS011;60557;51.350;12.410;2023-02-15T02:37:51;56.55;;;25.00;;
50717;SDS011;60557;51.350;12.410;2023-02-15T02:43:00;45.55;;;23.95;;
50717;SDS011;60557;51.350;12.410;2023-02-15T02:45:32;45.97;;;23.60;;
50717;SDS011;60557;51.350;12.410;2023-02-15T02:48:08;46.25;;;23.73;;
50717;SDS011;60557;51.350;12.410;2023-02-15T02:50:38;42.50;;;23.00;;
50717;SDS011;60557;51.350;12.410;2023-02-15T02:53:05;46.03;;;24.55;;
50717;SDS011;60557;51.350;12.410;2023-02-15T02:55:39;47.17;;;25.10;;
50717;SDS011;60557;51.350;12.410;2023-02-15T02:58:11;40.22;;;22.17;;
50717;SDS011;60557;51.350;12.410;2023-02-15T03:00:44;48.22;;;26.23;;
50717;SDS011;60557;51.350;12.410;2023-02-15T03:03:21;45.22;;;23.13;;
50717;SDS011;60557;51.350;12.410;2023-02-15T03:05:53;47.13;;;24.70;;
50717;SDS011;60557;51.350;12.410;2023-02-15T03:10:51;84.07;;;41.35;;
50717;SDS011;60557;51.350;12.410;2023-02-15T03:13:21;89.10;;;42.63;;
50717;SDS011;60557;51.350;12.410;2023-02-15T03:15:50;131.23;;;58.05;;
50717;SDS011;60557;51.350;12.410;2023-02-15T03:18:38;120.57;;;59.75;;
50717;SDS011;60557;51.350;12.410;2023-02-15T03:21:06;126.60;;;54.53;;
50717;SDS011;60557;51.350;12.410;2023-02-15T03:23:36;166.80;;;70.82;;
50717;SDS011;60557;51.350;12.410;2023-02-15T03:26:04;149.15;;;68.35;;
50717;SDS011;60557;51.350;12.410;2023-02-15T03:28:35;171.30;;;71.53;;
50717;SDS011;60557;51.350;12.410;2023-02-15T03:31:02;174.38;;;71.32;;
50717;SDS011;60557;51.350;12.410;2023-02-15T03:33:30;171.75;;;74.22;;
50717;SDS011;60557;51.350;12.410;2023-02-15T03:36:01;174.95;;;76.40;;
50717;SDS011;60557;51.350;12.410;2023-02-15T03:38:29;161.07;;;74.55;;
50717;SDS011;60557;51.350;12.410;2023-02-15T03:40:58;173.50;;;73.07;;
50717;SDS011;60557;51.350;12.410;2023-02-15T03:46:11;157.52;;;67.20;;
50717;SDS011;60557;51.350;12.410;2023-02-15T03:48:42;142.30;;;59.08;;
50717;SDS011;60557;51.350;12.410;2023-02-15T03:51:12;102.72;;;47.60;;
50717;SDS011;60557;51.350;12.410;2023-02-15T03:53:58;100.47;;;43.92;;
50717;SDS011;60557;51.350;12.410;2023-02-15T03:56:27;106.38;;;46.15;;
50717;SDS011;60557;51.350;12.410;2023-02-15T03:58:53;84.95;;;37.92;;
50717;SDS011;60557;51.350;12.410;2023-02-15T04:01:39;74.63;;;33.83;;
50717;SDS011;60557;51.350;12.410;2023-02-15T04:04:40;68.55;;;33.28;;
50717;SDS011;60557;51.350;12.410;2023-02-15T04:07:08;65.88;;;31.17;;
50717;SDS011;60557;51.350;12.410;2023-02-15T04:09:34;62.17;;;29.52;;
50717;SDS011;60557;51.350;12.410;2023-02-15T04:12:21;52.50;;;27.05;;
50717;SDS011;60557;51.350;12.410;2023-02-15T04:14:47;58.08;;;29.08;;
50717;SDS011;60557;51.350;12.410;2023-02-15T04:17:32;59.88;;;29.42;;
50717;SDS011;60557;51.350;12.410;2023-02-15T04:19:58;50.33;;;26.33;;
50717;SDS011;60557;51.350;12.410;2023-02-15T04:22:43;50.88;;;26.63;;
50717;SDS011;60557;51.350;12.410;2023-02-15T04:25:28;53.80;;;26.58;;
50717;SDS011;60557;51.350;12.410;2023-02-15T04:27:54;53.28;;;25.35;;
50717;SDS011;60557;51.350;12.410;2023-02-15T04:30:22;57.83;;;27.00;;
50717;SDS011;60557;51.350;12.410;2023-02-15T04:32:48;44.97;;;25.20;;
50717;SDS011;60557;51.350;12.410;2023-02-15T04:35:14;54.42;;;27.60;;
50717;SDS011;60557;51.350;12.410;2023-02-15T04:37:41;51.33;;;25.40;;
50717;SDS011;60557;51.350;12.410;2023-02-15T04:40:08;44.33;;;22.33;;
50717;SDS011;60557;51.350;12.410;2023-02-15T04:42:36;43.80;;;23.10;;
50717;SDS011;60557;51.350;12.410;2023-02-15T04:45:03;46.30;;;23.52;;
50717;SDS011;60557;51.350;12.410;2023-02-15T04:47:29;46.55;;;22.33;;
50717;SDS011;60557;51.350;12.410;2023-02-15T04:49:55;35.40;;;19.27;;
50717;SDS011;60557;51.350;12.410;2023-02-15T04:52:21;41.08;;;21.30;;
50717;SDS011;60557;51.350;12.410;2023-02-15T04:54:47;43.17;;;20.58;;
50717;SDS011;60557;51.350;12.410;2023-02-15T04:57:16;44.38;;;22.35;;
50717;SDS011;60557;51.350;12.410;2023-02-15T04:59:42;43.45;;;21.33;;
50717;SDS011;60557;51.350;12.410;2023-02-15T05:02:08;42.90;;;21.77;;
50717;SDS011;60557;51.350;12.410;2023-02-15T05:04:34;33.92;;;20.55;;
50717;SDS011;60557;51.350;12.410;2023-02-15T05:07:00;42.38;;;20.42;;
50717;SDS011;60557;51.350;12.410;2023-02-15T05:09:26;36.72;;;20.70;;
50717;SDS011;60557;51.350;12.410;2023-02-15T05:11:52;35.75;;;19.52;;
50717;SDS011;60557;51.350;12.410;2023-02-15T05:14:18;35.65;;;19.17;;
50717;SDS011;60557;51.350;12.410;2023-02-15T05:16:44;36.53;;;18.65;;
50717;SDS011;60557;51.350;12.410;2023-02-15T05:19:10;30.98;;;18.42;;
50717;SDS011;60557;51.350;12.410;2023-02-15T05:21:36;31.25;;;16.73;;
50717;SDS011;60557;51.350;12.410;2023-02-15T05:24:07;32.10;;;17.55;;
50717;SDS011;60557;51.350;12.410;2023-02-15T05:26:52;32.88;;;17.23;;
50717;SDS011;60557;51.350;12.410;2023-02-15T05:29:36;28.23;;;16.25;;
50717;SDS011;60557;51.350;12.410;2023-02-15T05:32:02;26.70;;;15.50;;
50717;SDS011;60557;51.350;12.410;2023-02-15T05:34:29;32.70;;;16.20;;
50717;SDS011;60557;51.350;12.410;2023-02-15T05:36:55;27.17;;;17.02;;
50717;SDS011;60557;51.350;12.410;2023-02-15T05:39:21;34.72;;;17.75;;
50717;SDS011;60557;51.350;12.410;2023-02-15T05:41:47;34.08;;;19.60;;
50717;SDS011;60557;51.350;12.410;2023-02-15T05:44:13;35.78;;;18.27;;
50717;SDS011;60557;51.350;12.410;2023-02-15T05:46:39;36.85;;;19.13;;
50717;SDS011;60557;51.350;12.410;2023-02-15T05:49:07;40.05;;;20.52;;
50717;SDS011;60557;51.350;12.410;2023-02-15T05:51:34;32.25;;;18.45;;
50717;SDS011;60557;51.350;12.410;2023-02-15T05:54:00;29.20;;;16.70;;
50717;SDS011;60557;51.350;12.410;2023-02-15T05:56:26;31.73;;;19.35;;
50717;SDS011;60557;51.350;12.410;2023-02-15T05:58:52;27.20;;;15.85;;
50717;SDS011;60557;51.350;12.410;2023-02-15T06:01:19;28.63;;;16.58;;
50717;SDS011;60557;51.350;12.410;2023-02-15T06:03:47;38.92;;;19.02;;
50717;SDS011;60557;51.350;12.410;2023-02-15T06:06:16;32.83;;;18.13;;
50717;SDS011;60557;51.350;12.410;2023-02-15T06:08:43;30.80;;;17.70;;
50717;SDS011;60557;51.350;12.410;2023-02-15T06:11:09;26.17;;;15.88;;
50717;SDS011;60557;51.350;12.410;2023-02-15T06:13:35;29.05;;;15.82;;
50717;SDS011;60557;51.350;12.410;2023-02-15T06:16:02;24.27;;;14.68;;
50717;SDS011;60557;51.350;12.410;2023-02-15T06:18:28;23.00;;;14.48;;
50717;SDS011;60557;51.350;12.410;2023-02-15T06:20:54;24.95;;;13.98;;
50717;SDS011;60557;51.350;12.410;2023-02-15T06:23:20;22.67;;;15.25;;
50717;SDS011;60557;51.350;12.410;2023-02-15T06:25:46;22.88;;;14.68;;
50717;SDS011;60557;51.350;12.410;2023-02-15T06:28:12;25.23;;;15.95;;
50717;SDS011;60557;51.350;12.410;2023-02-15T06:30:38;25.80;;;14.95;;
50717;SDS011;60557;51.350;12.410;2023-02-15T06:33:05;23.50;;;13.93;;
50717;SDS011;60557;51.350;12.410;2023-02-15T06:35:31;27.60;;;15.43;;
50717;SDS011;60557;51.350;12.410;2023-02-15T06:37:59;26.63;;;14.98;;
50717;SDS011;60557;51.350;12.410;2023-02-15T06:40:25;25.58;;;15.38;;
50717;SDS011;60557;51.350;12.410;2023-02-15T06:42:51;22.65;;;14.77;;
50717;SDS011;60557;51.350;12.410;2023-02-15T06:45:17;26.48;;;14.73;;
50717;SDS011;60557;51.350;12.410;2023-02-15T06:47:43;29.30;;;15.77;;
50717;SDS011;60557;51.350;12.410;2023-02-15T06:50:10;22.73;;;14.82;;
50717;SDS011;60557;51.350;12.410;2023-02-15T06:52:36;23.15;;;13.43;;
50717;SDS011;60557;51.350;12.410;2023-02-15T06:55:02;24.45;;;14.75;;
50717;SDS011;60557;51.350;12.410;2023-02-15T06:57:28;27.25;;;13.73;;
50717;SDS011;60557;51.350;12.410;2023-02-15T06:59:55;21.70;;;15.30;;
50717;SDS011;60557;51.350;12.410;2023-02-15T07:02:23;19.45;;;12.43;;
50717;SDS011;60557;51.350;12.410;2023-02-15T07:04:49;20.73;;;13.30;;
50717;SDS011;60557;51.350;12.410;2023-02-15T07:07:17;23.00;;;13.73;;
50717;SDS011;60557;51.350;12.410;2023-02-15T07:09:43;20.30;;;13.52;;
50717;SDS011;60557;51.350;12.410;2023-02-15T07:12:12;19.52;;;12.90;;
50717;SDS011;60557;51.350;12.410;2023-02-15T07:14:59;19.30;;;11.68;;
50717;SDS011;60557;51.350;12.410;2023-02-15T07:17:31;21.10;;;12.52;;
50717;SDS011;60557;51.350;12.410;2023-02-15T07:19:57;18.80;;;11.63;;
50717;SDS011;60557;51.350;12.410;2023-02-15T07:22:23;19.55;;;13.52;;
50717;SDS011;60557;51.350;12.410;2023-02-15T07:24:49;19.90;;;12.32;;
50717;SDS011;60557;51.350;12.410;2023-02-15T07:27:19;17.50;;;12.05;;
50717;SDS011;60557;51.350;12.410;2023-02-15T07:29:45;23.30;;;12.05;;
50717;SDS011;60557;51.350;12.410;2023-02-15T07:32:11;25.77;;;11.77;;
50717;SDS011;60557;51.350;12.410;2023-02-15T07:34:40;19.95;;;12.20;;
50717;SDS011;60557;51.350;12.410;2023-02-15T07:37:08;20.52;;;11.65;;
50717;SDS011;60557;51.350;12.410;2023-02-15T07:39:35;15.85;;;10.48;;
50717;SDS011;60557;51.350;12.410;2023-02-15T07:42:01;18.38;;;11.77;;
50717;SDS011;60557;51.350;12.410;2023-02-15T07:44:27;21.48;;;11.88;;
50717;SDS011;60557;51.350;12.410;2023-02-15T07:46:53;14.75;;;8.80;;
50717;SDS011;60557;51.350;12.410;2023-02-15T07:49:19;13.60;;;9.07;;
50717;SDS011;60557;51.350;12.410;2023-02-15T07:51:45;23.38;;;10.52;;
50717;SDS011;60557;51.350;12.410;2023-02-15T07:54:11;22.40;;;8.75;;
50717;SDS011;60557;51.350;12.410;2023-02-15T07:56:37;12.93;;;9.93;;
50717;SDS011;60557;51.350;12.410;2023-02-15T07:59:03;24.13;;;9.30;;
50717;SDS011;60557;51.350;12.410;2023-02-15T08:01:34;15.27;;;9.88;;
50717;SDS011;60557;51.350;12.410;2023-02-15T08:04:00;13.18;;;9.48;;
50717;SDS011;60557;51.350;12.410;2023-02-15T08:06:28;11.82;;;7.55;;
50717;SDS011;60557;51.350;12.410;2023-02-15T08:08:54;14.00;;;8.65;;
50717;SDS011;60557;51.350;12.410;2023-02-15T08:19:04;17.08;;;7.47;;
50717;SDS011;60557;51.350;12.410;2023-02-15T08:21:33;11.85;;;6.75;;
50717;SDS011;60557;51.350;12.410;2023-02-15T08:23:59;18.52;;;9.07;;
50717;SDS011;60557;51.350;12.410;2023-02-15T08:26:26;14.60;;;8.73;;
50717;SDS011;60557;51.350;12.410;2023-02-15T08:28:52;17.95;;;10.00;;
50717;SDS011;60557;51.350;12.410;2023-02-15T08:31:21;14.68;;;6.88;;
50717;SDS011;60557;51.350;12.410;2023-02-15T08:33:48;8.82;;;4.40;;
50717;SDS011;60557;51.350;12.410;2023-02-15T08:36:16;10.05;;;6.20;;
50717;SDS011;60557;51.350;12.410;2023-02-15T08:38:43;10.25;;;6.63;;
50717;SDS011;60557;51.350;12.410;2023-02-15T08:43:38;13.10;;;7.57;;
50717;SDS011;60557;51.350;12.410;2023-02-15T08:46:07;12.93;;;8.02;;
50717;SDS011;60557;51.350;12.410;2023-02-15T08:48:33;9.70;;;6.95;;
50717;SDS011;60557;51.350;12.410;2023-02-15T08:51:03;11.52;;;6.80;;
50717;SDS011;60557;51.350;12.410;2023-02-15T08:53:30;7.75;;;4.93;;
50717;SDS011;60557;51.350;12.410;2023-02-15T08:55:56;8.15;;;5.38;;
50717;SDS011;60557;51.350;12.410;2023-02-15T08:58:22;10.35;;;6.45;;
50717;SDS011;60557;51.350;12.410;2023-02-15T09:00:48;11.77;;;6.75;;
50717;SDS011;60557;51.350;12.410;2023-02-15T09:03:15;13.75;;;7.57;;
50717;SDS011;60557;51.350;12.410;2023-02-15T09:05:43;10.95;;;5.82;;
50717;SDS011;60557;51.350;12.410;2023-02-15T09:08:09;10.13;;;5.80;;
50717;SDS011;60557;51.350;12.410;2023-02-15T09:10:35;20.60;;;9.55;;
50717;SDS011;60557;51.350;12.410;2023-02-15T09:13:02;10.05;;;5.45;;
50717;SDS011;60557;51.350;12.410;2023-02-15T09:15:28;11.77;;;6.10;;
50717;SDS011;60557;51.350;12.410;2023-02-15T09:17:54;11.63;;;5.68;;
50717;SDS011;60557;51.350;12.410;2023-02-15T09:20:26;12.45;;;7.88;;
50717;SDS011;60557;51.350;12.410;2023-02-15T09:22:53;13.13;;;5.70;;
50717;SDS011;60557;51.350;12.410;2023-02-15T09:25:19;13.60;;;5.05;;
50717;SDS011;60557;51.350;12.410;2023-02-15T09:27:46;10.20;;;5.47;;
50717;SDS011;60557;51.350;12.410;2023-02-15T09:30:12;5.70;;;4.30;;
50717;SDS011;60557;51.350;12.410;2023-02-15T09:32:38;7.38;;;4.70;;
50717;SDS011;60557;51.350;12.410;2023-02-15T09:35:05;8.10;;;4.90;;
50717;SDS011;60557;51.350;12.410;2023-02-15T09:37:31;5.40;;;3.65;;
50717;SDS011;60557;51.350;12.410;2023-02-15T09:39:57;8.20;;;4.95;;
50717;SDS011;60557;51.350;12.410;2023-02-15T10:00:24;10.70;;;4.35;;
50717;SDS011;60557;51.350;12.410;2023-02-15T10:03:03;7.63;;;4.00;;
50717;SDS011;60557;51.350;12.410;2023-02-15T10:11:17;8.75;;;4.15;;
50717;SDS011;60557;51.350;12.410;2023-02-15T10:26:44;5.50;;;3.80;;
50717;SDS011;60557;51.350;12.410;2023-02-15T10:31:57;6.40;;;4.55;;
50717;SDS011;60557;51.350;12.410;2023-02-15T10:34:37;6.80;;;3.95;;
50717;SDS011;60557;51.350;12.410;2023-02-15T10:55:28;12.45;;;5.47;;
50717;SDS011;60557;51.350;12.410;2023-02-15T11:03:14;13.45;;;4.22;;
50717;SDS011;60557;51.350;12.410;2023-02-15T11:08:08;12.23;;;6.00;;
50717;SDS011;60557;51.350;12.410;2023-02-15T11:10:39;6.70;;;4.55;;
50717;SDS011;60557;51.350;12.410;2023-02-15T11:13:14;7.32;;;5.15;;
50717;SDS011;60557;51.350;12.410;2023-02-15T11:15:46;9.57;;;4.47;;
50717;SDS011;60557;51.350;12.410;2023-02-15T11:23:29;8.98;;;4.32;;
50717;SDS011;60557;51.350;12.410;2023-02-15T11:28:24;9.57;;;4.45;;
50717;SDS011;60557;51.350;12.410;2023-02-15T11:30:53;8.25;;;4.53;;
50717;SDS011;60557;51.350;12.410;2023-02-15T11:33:30;8.30;;;4.75;;
50717;SDS011;60557;51.350;12.410;2023-02-15T11:35:59;9.57;;;4.43;;
50717;SDS011;60557;51.350;12.410;2023-02-15T11:38:28;8.23;;;4.32;;
50717;SDS011;60557;51.350;12.410;2023-02-15T11:40:56;8.68;;;4.95;;
50717;SDS011;60557;51.350;12.410;2023-02-15T11:43:28;11.18;;;3.92;;
50717;SDS011;60557;51.350;12.410;2023-02-15T11:45:56;9.57;;;4.40;;
50717;SDS011;60557;51.350;12.410;2023-02-15T11:48:22;10.57;;;5.40;;
50717;SDS011;60557;51.350;12.410;2023-02-15T11:50:48;11.40;;;4.72;;
50717;SDS011;60557;51.350;12.410;2023-02-15T11:53:15;10.20;;;5.18;;
50717;SDS011;60557;51.350;12.410;2023-02-15T11:55:43;7.22;;;4.00;;
50717;SDS011;60557;51.350;12.410;2023-02-15T12:01:16;22.92;;;11.85;;
50717;SDS011;60557;51.350;12.410;2023-02-15T12:03:49;14.95;;;3.60;;
50717;SDS011;60557;51.350;12.410;2023-02-15T12:06:17;9.43;;;4.97;;
50717;SDS011;60557;51.350;12.410;2023-02-15T12:08:46;9.65;;;4.70;;
50717;SDS011;60557;51.350;12.410;2023-02-15T12:11:19;11.57;;;4.53;;
50717;SDS011;60557;51.350;12.410;2023-02-15T12:16:24;14.68;;;6.70;;
50717;SDS011;60557;51.350;12.410;2023-02-15T12:18:52;9.52;;;4.63;;
50717;SDS011;60557;51.350;12.410;2023-02-15T12:21:30;6.32;;;3.45;;
50717;SDS011;60557;51.350;12.410;2023-02-15T12:24:03;10.60;;;4.13;;
50717;SDS011;60557;51.350;12.410;2023-02-15T12:26:31;4.63;;;3.72;;
50717;SDS011;60557;51.350;12.410;2023-02-15T12:28:58;7.60;;;4.15;;
50717;SDS011;60557;51.350;12.410;2023-02-15T12:31:28;12.68;;;4.03;;
50717;SDS011;60557;51.350;12.410;2023-02-15T12:34:00;15.43;;;5.35;;
50717;SDS011;60557;51.350;12.410;2023-02-15T12:36:40;13.43;;;4.30;;
50717;SDS011;60557;51.350;12.410;2023-02-15T12:41:38;9.60;;;4.00;;
50717;SDS011;60557;51.350;12.410;2023-02-15T12:44:17;7.05;;;3.58;;
50717;SDS011;60557;51.350;12.410;2023-02-15T12:46:58;8.40;;;4.20;;
50717;SDS011;60557;51.350;12.410;2023-02-15T12:49:26;8.15;;;3.40;;
50717;SDS011;60557;51.350;12.410;2023-02-15T12:51:53;4.53;;;3.33;;
50717;SDS011;60557;51.350;12.410;2023-02-15T12:56:47;11.90;;;3.30;;
50717;SDS011;60557;51.350;12.410;2023-02-15T12:59:14;7.80;;;3.40;;
50717;SDS011;60557;51.350;12.410;2023-02-15T13:01:41;7.88;;;4.10;;
50717;SDS011;60557;51.350;12.410;2023-02-15T13:04:26;4.90;;;2.78;;
50717;SDS011;60557;51.350;12.410;2023-02-15T13:06:54;7.35;;;2.78;;
50717;SDS011;60557;51.350;12.410;2023-02-15T13:11:51;12.75;;;2.72;;
50717;SDS011;60557;51.350;12.410;2023-02-15T13:14:21;3.72;;;2.53;;
50717;SDS011;60557;51.350;12.410;2023-02-15T13:16:48;4.65;;;2.63;;
50717;SDS011;60557;51.350;12.410;2023-02-15T13:21:46;6.80;;;3.15;;
50717;SDS011;60557;51.350;12.410;2023-02-15T13:24:22;5.05;;;3.10;;
50717;SDS011;60557;51.350;12.410;2023-02-15T13:26:49;4.10;;;2.50;;
50717;SDS011;60557;51.350;12.410;2023-02-15T13:31:45;4.75;;;2.90;;
50717;SDS011;60557;51.350;12.410;2023-02-15T13:36:44;4.65;;;3.03;;
50717;SDS011;60557;51.350;12.410;2023-02-15T13:39:16;9.10;;;2.83;;
50717;SDS011;60557;51.350;12.410;2023-02-15T13:52:01;5.55;;;2.70;;
50717;SDS011;60557;51.350;12.410;2023-02-15T13:57:04;6.07;;;2.58;;
50717;SDS011;60557;51.350;12.410;2023-02-15T13:59:46;4.88;;;2.03;;
50717;SDS011;60557;51.350;12.410;2023-02-15T14:12:27;4.57;;;2.95;;
50717;SDS011;60557;51.350;12.410;2023-02-15T14:22:51;6.90;;;2.85;;
50717;SDS011;60557;51.350;12.410;2023-02-15T14:30:25;4.57;;;3.00;;
50717;SDS011;60557;51.350;12.410;2023-02-15T14:32:56;5.53;;;2.75;;
50717;SDS011;60557;51.350;12.410;2023-02-15T14:35:28;5.63;;;2.53;;
50717;SDS011;60557;51.350;12.410;2023-02-15T14:38:02;5.50;;;2.50;;
50717;SDS011;60557;51.350;12.410;2023-02-15T14:57:20;3.25;;;2.25;;
50717;SDS011;60557;51.350;12.410;2023-02-15T15:09:40;7.82;;;2.90;;
50717;SDS011;60557;51.350;12.410;2023-02-15T15:14:50;4.50;;;2.50;;
50717;SDS011;60557;51.350;12.410;2023-02-15T15:19:59;3.80;;;2.13;;
50717;SDS011;60557;51.350;12.410;2023-02-15T15:22:33;5.80;;;2.53;;
50717;SDS011;60557;51.350;12.410;2023-02-15T15:25:00;4.65;;;2.58;;
50717;SDS011;60557;51.350;12.410;2023-02-15T15:27:45;8.18;;;4.85;;
50717;SDS011;60557;51.350;12.410;2023-02-15T15:32:50;6.45;;;3.90;;
50717;SDS011;60557;51.350;12.410;2023-02-15T15:35:34;10.00;;;2.97;;
50717;SDS011;60557;51.350;12.410;2023-02-15T15:46:00;5.15;;;2.70;;
50717;SDS011;60557;51.350;12.410;2023-02-15T15:53:47;7.93;;;3.63;;
50717;SDS011;60557;51.350;12.410;2023-02-15T15:56:17;10.90;;;4.18;;
50717;SDS011;60557;51.350;12.410;2023-02-15T15:58:46;7.95;;;4.28;;
50717;SDS011;60557;51.350;12.410;2023-02-15T16:01:15;10.85;;;7.03;;
50717;SDS011;60557;51.350;12.410;2023-02-15T16:03:51;8.35;;;4.28;;
50717;SDS011;60557;51.350;12.410;2023-02-15T16:06:27;12.68;;;5.50;;
50717;SDS011;60557;51.350;12.410;2023-02-15T16:08:53;11.40;;;6.18;;
50717;SDS011;60557;51.350;12.410;2023-02-15T16:11:21;7.78;;;5.57;;
50717;SDS011;60557;51.350;12.410;2023-02-15T16:13:48;13.07;;;6.88;;
50717;SDS011;60557;51.350;12.410;2023-02-15T16:16:19;11.57;;;6.90;;
50717;SDS011;60557;51.350;12.410;2023-02-15T16:18:48;13.43;;;4.10;;
50717;SDS011;60557;51.350;12.410;2023-02-15T16:21:17;10.88;;;4.05;;
50717;SDS011;60557;51.350;12.410;2023-02-15T16:28:51;13.20;;;7.82;;
50717;SDS011;60557;51.350;12.410;2023-02-15T16:31:18;24.48;;;9.15;;
50717;SDS011;60557;51.350;12.410;2023-02-15T16:33:45;19.52;;;8.10;;
50717;SDS011;60557;51.350;12.410;2023-02-15T16:36:21;12.07;;;6.53;;
50717;SDS011;60557;51.350;12.410;2023-02-15T16:41:16;21.27;;;6.75;;
50717;SDS011;60557;51.350;12.410;2023-02-15T16:43:43;11.85;;;4.68;;
50717;SDS011;60557;51.350;12.410;2023-02-15T16:46:10;10.63;;;4.78;;
50717;SDS011;60557;51.350;12.410;2023-02-15T16:48:39;15.02;;;5.47;;
50717;SDS011;60557;51.350;12.410;2023-02-15T16:51:07;16.90;;;6.03;;
50717;SDS011;60557;51.350;12.410;2023-02-15T16:53:33;7.07;;;4.43;;
50717;SDS011;60557;51.350;12.410;2023-02-15T16:56:03;9.32;;;5.05;;
50717;SDS011;60557;51.350;12.410;2023-02-15T16:58:42;15.18;;;7.03;;
50717;SDS011;60557;51.350;12.410;2023-02-15T17:01:10;9.23;;;6.18;;
50717;SDS011;60557;51.350;12.410;2023-02-15T17:03:36;10.85;;;4.50;;
50717;SDS011;60557;51.350;12.410;2023-02-15T17:06:03;7.85;;;4.45;;
50717;SDS011;60557;51.350;12.410;2023-02-15T17:08:33;14.50;;;5.20;;
50717;SDS011;60557;51.350;12.410;2023-02-15T17:11:10;12.25;;;6.00;;
50717;SDS011;60557;51.350;12.410;2023-02-15T17:13:37;13.25;;;5.45;;
50717;SDS011;60557;51.350;12.410;2023-02-15T17:18:33;31.77;;;11.02;;
50717;SDS011;60557;51.350;12.410;2023-02-15T17:21:00;15.85;;;7.97;;
50717;SDS011;60557;51.350;12.410;2023-02-15T17:23:31;16.90;;;10.55;;
50717;SDS011;60557;51.350;12.410;2023-02-15T17:25:58;24.38;;;14.73;;
50717;SDS011;60557;51.350;12.410;2023-02-15T17:28:26;22.58;;;13.55;;
50717;SDS011;60557;51.350;12.410;2023-02-15T17:30:53;11.90;;;5.88;;
50717;SDS011;60557;51.350;12.410;2023-02-15T17:38:34;14.23;;;5.65;;
50717;SDS011;60557;51.350;12.410;2023-02-15T17:41:00;11.88;;;6.43;;
50717;SDS011;60557;51.350;12.410;2023-02-15T17:43:29;14.25;;;6.50;;
50717;SDS011;60557;51.350;12.410;2023-02-15T17:45:56;15.18;;;5.90;;
50717;SDS011;60557;51.350;12.410;2023-02-15T17:50:48;15.43;;;8.63;;
50717;SDS011;60557;51.350;12.410;2023-02-15T17:53:15;12.70;;;6.07;;
50717;SDS011;60557;51.350;12.410;2023-02-15T17:55:44;14.65;;;6.75;;
50717;SDS011;60557;51.350;12.410;2023-02-15T17:58:15;9.50;;;5.88;;
50717;SDS011;60557;51.350;12.410;2023-02-15T18:00:47;7.30;;;4.82;;
50717;SDS011;60557;51.350;12.410;2023-02-15T18:03:43;4.93;;;3.53;;
50717;SDS011;60557;51.350;12.410;2023-02-15T18:06:28;9.70;;;5.65;;
50717;SDS011;60557;51.350;12.410;2023-02-15T18:09:15;11.95;;;6.15;;
50717;SDS011;60557;51.350;12.410;2023-02-15T18:12:00;10.02;;;7.10;;
50717;SDS011;60557;51.350;12.410;2023-02-15T18:14:27;7.93;;;5.50;;
50717;SDS011;60557;51.350;12.410;2023-02-15T18:16:53;17.20;;;7.38;;
50717;SDS011;60557;51.350;12.410;2023-02-15T18:19:20;10.52;;;6.65;;
50717;SDS011;60557;51.350;12.410;2023-02-15T18:21:50;10.13;;;6.00;;
50717;SDS011;60557;51.350;12.410;2023-02-15T18:24:22;14.55;;;7.18;;